Myrtle Beach International Airport
KMYR : now visible

Airfield :











YOU CAN JOIN US ON...

 
LOGIN :

Register | Disclaimer

   EN    FR    IT 

 









Legend :    VFR   Marginal VFR   IFR   Intensive IFR   Very Intensive IFR
Visi :
Ceiling :
>= 8 km
>= 3000ft
5 to 8 km
1000 to 3000 ft
1500m to 5 km
500 to 1000 ft
800 to 1500m
200 to 500 ft
< 800m
< 200 ft
Symbols :   Thunderstorms  Fog  Heavy snow  Heavy precipitations  Wind > 20 kt






- Airport Elevation : 25 ft
- IATA code : MYR


KMYR - Myrtle Beach International

CURRENT METAR :
  • 280356Z AUTO 17009KT 10SM BKN024 24/23 A3004 RMK AO2 SLP172 T02390233

EXPIRED METARs :
  • 280338Z AUTO 17009KT 10SM BKN028 OVC060 24/23 A3003 RMK AO2
  • 280256Z AUTO 17009KT 10SM SCT016 24/23 A3003 RMK AO2 SLP168 T02390233 53016
  • 280208Z AUTO 17010KT 10SM FEW014 SCT025 BKN041 24/23 A3001 RMK AO2
  • 280156Z AUTO 17011KT 10SM SCT023 BKN029 BKN041 24/23 A3001 RMK AO2 SLP162 T02440233

TAF KMYR
Valid from the 28 at 00:00 until the 29 at 00:00 UTC


280015Z 2800/2824 17011KT P6SM VCSH SCT009 BKN080
FM280300 15013G20KT P6SM VCSH OVC019
FM280900 16008KT 4SM SHRA OVC019
FM281300 18011KT P6SM BKN025
PROB30 2818/2821 4SM TS BKN050CB
FM282100 18012KT P6SM SCT030 BKN250
KZJX FIR / North America



MET'MAP, your aeronautical weather chart ! - Copyright ORBIFLY December 2007 - Disclaimer

ORBIFLY MET'MAP TEAM :

Programming & Development : Alexandra Zaïnal
Concept & original design : Baudouin d'Aumeries
Assistance for programming : Marc-Olivier Méhu
Technical & hardware support : Manuel Goepfert

Contact : metmap@orbifly.com




SOURCES & CREDITS :

   NOAA       Earth
Advisory